sensor_id;sensor_type;location;lat;lon;timestamp;temperature;humidity
17333;DHT22;8784;50.94667800;7.08448400;2023-08-07T00:01:19;15.40;99.90
17333;DHT22;8784;50.94667800;7.08448400;2023-08-07T00:03:46;15.50;99.90
17333;DHT22;8784;50.94667800;7.08448400;2023-08-07T00:06:13;15.50;99.90
17333;DHT22;8784;50.94667800;7.08448400;2023-08-07T00:08:41;15.50;99.90
17333;DHT22;8784;50.94667800;7.08448400;2023-08-07T00:11:09;15.50;99.90
17333;DHT22;8784;50.94667800;7.08448400;2023-08-07T00:13:36;15.60;99.90
17333;DHT22;8784;50.94667800;7.08448400;2023-08-07T00:16:03;15.50;99.90
17333;DHT22;8784;50.94667800;7.08448400;2023-08-07T00:18:30;15.50;99.90
17333;DHT22;8784;50.94667800;7.08448400;2023-08-07T00:20:57;15.40;99.90
17333;DHT22;8784;50.94667800;7.08448400;2023-08-07T00:23:24;15.40;99.90
17333;DHT22;8784;50.94667800;7.08448400;2023-08-07T00:25:52;15.40;99.90
17333;DHT22;8784;50.94667800;7.08448400;2023-08-07T00:28:19;15.30;99.90
17333;DHT22;8784;50.94667800;7.08448400;2023-08-07T00:30:46;15.20;99.90
17333;DHT22;8784;50.94667800;7.08448400;2023-08-07T00:33:12;15.30;99.90
17333;DHT22;8784;50.94667800;7.08448400;2023-08-07T00:35:39;15.20;99.90
17333;DHT22;8784;50.94667800;7.08448400;2023-08-07T00:38:06;15.20;99.90
17333;DHT22;8784;50.94667800;7.08448400;2023-08-07T00:40:37;15.10;99.90
17333;DHT22;8784;50.94667800;7.08448400;2023-08-07T00:43:05;15.10;99.90
17333;DHT22;8784;50.94667800;7.08448400;2023-08-07T00:45:35;15.20;99.90
17333;DHT22;8784;50.94667800;7.08448400;2023-08-07T00:48:03;15.10;99.90
17333;DHT22;8784;50.94667800;7.08448400;2023-08-07T00:50:30;15.10;99.90
17333;DHT22;8784;50.94667800;7.08448400;2023-08-07T00:52:57;15.10;99.90
17333;DHT22;8784;50.94667800;7.08448400;2023-08-07T00:55:24;15.10;99.90
17333;DHT22;8784;50.94667800;7.08448400;2023-08-07T00:57:51;14.90;99.90
17333;DHT22;8784;50.94667800;7.08448400;2023-08-07T01:00:20;14.80;99.90
17333;DHT22;8784;50.94667800;7.08448400;2023-08-07T01:02:48;14.70;99.90
17333;DHT22;8784;50.94667800;7.08448400;2023-08-07T01:05:16;14.80;99.90
17333;DHT22;8784;50.94667800;7.08448400;2023-08-07T01:07:46;14.70;99.90
17333;DHT22;8784;50.94667800;7.08448400;2023-08-07T01:10:14;14.70;99.90
17333;DHT22;8784;50.94667800;7.08448400;2023-08-07T01:12:50;14.70;99.90
17333;DHT22;8784;50.94667800;7.08448400;2023-08-07T01:15:24;14.70;99.90
17333;DHT22;8784;50.94667800;7.08448400;2023-08-07T01:17:52;14.80;99.90
17333;DHT22;8784;50.94667800;7.08448400;2023-08-07T01:20:20;14.80;99.90
17333;DHT22;8784;50.94667800;7.08448400;2023-08-07T01:22:48;14.90;99.90
17333;DHT22;8784;50.94667800;7.08448400;2023-08-07T01:25:16;14.90;99.90
17333;DHT22;8784;50.94667800;7.08448400;2023-08-07T01:27:49;14.80;99.90
17333;DHT22;8784;50.94667800;7.08448400;2023-08-07T01:30:22;14.80;99.90
17333;DHT22;8784;50.94667800;7.08448400;2023-08-07T01:32:56;14.60;99.90
17333;DHT22;8784;50.94667800;7.08448400;2023-08-07T01:35:29;14.60;99.90
17333;DHT22;8784;50.94667800;7.08448400;2023-08-07T01:37:59;14.70;99.90
17333;DHT22;8784;50.94667800;7.08448400;2023-08-07T01:40:27;14.70;99.90
17333;DHT22;8784;50.94667800;7.08448400;2023-08-07T01:42:54;14.70;99.90
17333;DHT22;8784;50.94667800;7.08448400;2023-08-07T01:45:25;14.70;99.90
17333;DHT22;8784;50.94667800;7.08448400;2023-08-07T01:47:52;14.60;99.90
17333;DHT22;8784;50.94667800;7.08448400;2023-08-07T01:50:20;14.60;99.90
17333;DHT22;8784;50.94667800;7.08448400;2023-08-07T01:52:47;14.60;99.90
17333;DHT22;8784;50.94667800;7.08448400;2023-08-07T01:55:15;14.60;99.90
17333;DHT22;8784;50.94667800;7.08448400;2023-08-07T01:57:43;14.60;99.90
17333;DHT22;8784;50.94667800;7.08448400;2023-08-07T02:00:10;14.60;99.90
17333;DHT22;8784;50.94667800;7.08448400;2023-08-07T02:02:38;14.60;99.90
17333;DHT22;8784;50.94667800;7.08448400;2023-08-07T02:05:05;14.60;99.90
17333;DHT22;8784;50.94667800;7.08448400;2023-08-07T02:07:32;14.70;99.90
17333;DHT22;8784;50.94667800;7.08448400;2023-08-07T02:09:59;14.70;99.90
17333;DHT22;8784;50.94667800;7.08448400;2023-08-07T02:12:27;14.80;99.90
17333;DHT22;8784;50.94667800;7.08448400;2023-08-07T02:14:57;14.80;99.90
17333;DHT22;8784;50.94667800;7.08448400;2023-08-07T02:17:25;14.70;99.90
17333;DHT22;8784;50.94667800;7.08448400;2023-08-07T02:19:51;14.70;99.90
17333;DHT22;8784;50.94667800;7.08448400;2023-08-07T02:22:18;14.80;99.90
17333;DHT22;8784;50.94667800;7.08448400;2023-08-07T02:24:45;14.80;99.90
17333;DHT22;8784;50.94667800;7.08448400;2023-08-07T02:27:12;14.80;99.90
17333;DHT22;8784;50.94667800;7.08448400;2023-08-07T02:29:40;14.70;99.90
17333;DHT22;8784;50.94667800;7.08448400;2023-08-07T02:32:07;14.70;99.90
17333;DHT22;8784;50.94667800;7.08448400;2023-08-07T02:34:34;14.60;99.90
17333;DHT22;8784;50.94667800;7.08448400;2023-08-07T02:37:01;14.40;99.90
17333;DHT22;8784;50.94667800;7.08448400;2023-08-07T02:39:28;14.50;99.90
17333;DHT22;8784;50.94667800;7.08448400;2023-08-07T02:41:54;14.50;99.90
17333;DHT22;8784;50.94667800;7.08448400;2023-08-07T02:44:21;14.50;99.90
17333;DHT22;8784;50.94667800;7.08448400;2023-08-07T02:46:49;14.40;99.90
17333;DHT22;8784;50.94667800;7.08448400;2023-08-07T02:49:16;14.40;99.90
17333;DHT22;8784;50.94667800;7.08448400;2023-08-07T02:51:43;14.40;99.90
17333;DHT22;8784;50.94667800;7.08448400;2023-08-07T02:54:10;14.50;99.90
17333;DHT22;8784;50.94667800;7.08448400;2023-08-07T02:56:37;14.50;99.90
17333;DHT22;8784;50.94667800;7.08448400;2023-08-07T02:59:04;14.30;99.90
17333;DHT22;8784;50.94667800;7.08448400;2023-08-07T03:01:31;14.40;99.90
17333;DHT22;8784;50.94667800;7.08448400;2023-08-07T03:03:59;14.30;99.90
17333;DHT22;8784;50.94667800;7.08448400;2023-08-07T03:06:26;14.40;99.90
17333;DHT22;8784;50.94667800;7.08448400;2023-08-07T03:08:53;14.40;99.90
17333;DHT22;8784;50.94667800;7.08448400;2023-08-07T03:11:20;14.40;99.90
17333;DHT22;8784;50.94667800;7.08448400;2023-08-07T03:13:47;14.40;99.90
17333;DHT22;8784;50.94667800;7.08448400;2023-08-07T03:16:14;14.50;99.90
17333;DHT22;8784;50.94667800;7.08448400;2023-08-07T03:18:41;14.40;99.90
17333;DHT22;8784;50.94667800;7.08448400;2023-08-07T03:21:09;14.40;99.90
17333;DHT22;8784;50.94667800;7.08448400;2023-08-07T03:23:36;14.50;99.90
17333;DHT22;8784;50.94667800;7.08448400;2023-08-07T03:26:03;14.40;99.90
17333;DHT22;8784;50.94667800;7.08448400;2023-08-07T03:28:30;14.40;99.90
17333;DHT22;8784;50.94667800;7.08448400;2023-08-07T03:30:58;14.50;99.90
17333;DHT22;8784;50.94667800;7.08448400;2023-08-07T03:33:24;14.50;99.90
17333;DHT22;8784;50.94667800;7.08448400;2023-08-07T03:35:51;14.30;99.90
17333;DHT22;8784;50.94667800;7.08448400;2023-08-07T03:38:19;14.30;99.90
17333;DHT22;8784;50.94667800;7.08448400;2023-08-07T03:40:46;14.30;99.90
17333;DHT22;8784;50.94667800;7.08448400;2023-08-07T03:43:15;14.20;99.90
17333;DHT22;8784;50.94667800;7.08448400;2023-08-07T03:45:41;14.20;99.90
17333;DHT22;8784;50.94667800;7.08448400;2023-08-07T03:48:08;14.30;99.90
17333;DHT22;8784;50.94667800;7.08448400;2023-08-07T03:50:35;14.30;99.90
17333;DHT22;8784;50.94667800;7.08448400;2023-08-07T03:53:03;14.40;99.90
17333;DHT22;8784;50.94667800;7.08448400;2023-08-07T03:55:34;14.40;99.90
17333;DHT22;8784;50.94667800;7.08448400;2023-08-07T03:58:01;14.40;99.90
17333;DHT22;8784;50.94667800;7.08448400;2023-08-07T04:00:28;14.40;99.90
17333;DHT22;8784;50.94667800;7.08448400;2023-08-07T04:02:55;14.40;99.90
17333;DHT22;8784;50.94667800;7.08448400;2023-08-07T04:05:22;14.40;99.90
17333;DHT22;8784;50.94667800;7.08448400;2023-08-07T04:07:49;14.40;99.90
17333;DHT22;8784;50.94667800;7.08448400;2023-08-07T04:10:16;14.40;99.90
17333;DHT22;8784;50.94667800;7.08448400;2023-08-07T04:12:44;14.40;99.90
17333;DHT22;8784;50.94667800;7.08448400;2023-08-07T04:15:11;14.40;99.90
17333;DHT22;8784;50.94667800;7.08448400;2023-08-07T04:17:38;14.40;99.90
17333;DHT22;8784;50.94667800;7.08448400;2023-08-07T04:20:06;14.50;99.90
17333;DHT22;8784;50.94667800;7.08448400;2023-08-07T04:22:34;14.50;99.90
17333;DHT22;8784;50.94667800;7.08448400;2023-08-07T04:25:01;14.40;99.90
17333;DHT22;8784;50.94667800;7.08448400;2023-08-07T04:27:28;14.40;99.90
17333;DHT22;8784;50.94667800;7.08448400;2023-08-07T04:29:56;14.30;99.90
17333;DHT22;8784;50.94667800;7.08448400;2023-08-07T04:32:23;14.30;99.90
17333;DHT22;8784;50.94667800;7.08448400;2023-08-07T04:34:50;14.30;99.90
17333;DHT22;8784;50.94667800;7.08448400;2023-08-07T04:37:17;14.40;99.90
17333;DHT22;8784;50.94667800;7.08448400;2023-08-07T04:39:44;14.60;99.90
17333;DHT22;8784;50.94667800;7.08448400;2023-08-07T04:42:11;14.80;99.90
17333;DHT22;8784;50.94667800;7.08448400;2023-08-07T04:44:37;14.90;99.90
17333;DHT22;8784;50.94667800;7.08448400;2023-08-07T04:47:06;14.90;99.90
17333;DHT22;8784;50.94667800;7.08448400;2023-08-07T04:49:33;14.90;99.90
17333;DHT22;8784;50.94667800;7.08448400;2023-08-07T04:52:00;15.00;99.90
17333;DHT22;8784;50.94667800;7.08448400;2023-08-07T04:54:26;15.00;99.90
17333;DHT22;8784;50.94667800;7.08448400;2023-08-07T04:56:53;14.90;99.90
17333;DHT22;8784;50.94667800;7.08448400;2023-08-07T04:59:21;14.80;99.90
17333;DHT22;8784;50.94667800;7.08448400;2023-08-07T05:01:48;14.80;99.90
17333;DHT22;8784;50.94667800;7.08448400;2023-08-07T05:04:16;14.80;99.90
17333;DHT22;8784;50.94667800;7.08448400;2023-08-07T05:06:43;14.80;99.90
17333;DHT22;8784;50.94667800;7.08448400;2023-08-07T05:09:10;14.80;99.90
17333;DHT22;8784;50.94667800;7.08448400;2023-08-07T05:11:37;14.80;99.90
17333;DHT22;8784;50.94667800;7.08448400;2023-08-07T05:14:03;14.80;99.90
17333;DHT22;8784;50.94667800;7.08448400;2023-08-07T05:16:30;14.80;99.90
17333;DHT22;8784;50.94667800;7.08448400;2023-08-07T05:18:57;14.80;99.90
17333;DHT22;8784;50.94667800;7.08448400;2023-08-07T05:21:25;14.80;99.90
17333;DHT22;8784;50.94667800;7.08448400;2023-08-07T05:23:52;14.70;99.90
17333;DHT22;8784;50.94667800;7.08448400;2023-08-07T05:26:21;14.60;99.90
17333;DHT22;8784;50.94667800;7.08448400;2023-08-07T05:28:47;14.60;99.90
17333;DHT22;8784;50.94667800;7.08448400;2023-08-07T05:31:14;14.70;99.90
17333;DHT22;8784;50.94667800;7.08448400;2023-08-07T05:33:41;14.90;99.90
17333;DHT22;8784;50.94667800;7.08448400;2023-08-07T05:36:08;14.90;99.90
17333;DHT22;8784;50.94667800;7.08448400;2023-08-07T05:38:36;14.80;99.90
17333;DHT22;8784;50.94667800;7.08448400;2023-08-07T05:41:03;14.90;99.90
17333;DHT22;8784;50.94667800;7.08448400;2023-08-07T05:43:30;15.00;99.90
17333;DHT22;8784;50.94667800;7.08448400;2023-08-07T05:45:57;15.10;99.90
17333;DHT22;8784;50.94667800;7.08448400;2023-08-07T05:48:23;15.20;99.90
17333;DHT22;8784;50.94667800;7.08448400;2023-08-07T05:50:51;15.20;99.90
17333;DHT22;8784;50.94667800;7.08448400;2023-08-07T05:53:20;15.30;99.90
17333;DHT22;8784;50.94667800;7.08448400;2023-08-07T05:55:48;15.40;99.90
17333;DHT22;8784;50.94667800;7.08448400;2023-08-07T05:58:15;15.50;99.90
17333;DHT22;8784;50.94667800;7.08448400;2023-08-07T06:00:41;15.50;99.90
17333;DHT22;8784;50.94667800;7.08448400;2023-08-07T06:03:11;15.50;99.90
17333;DHT22;8784;50.94667800;7.08448400;2023-08-07T06:05:38;15.40;99.90
17333;DHT22;8784;50.94667800;7.08448400;2023-08-07T06:08:05;15.30;99.90
17333;DHT22;8784;50.94667800;7.08448400;2023-08-07T06:10:33;15.30;99.90
17333;DHT22;8784;50.94667800;7.08448400;2023-08-07T06:13:01;15.20;99.90
17333;DHT22;8784;50.94667800;7.08448400;2023-08-07T06:15:30;15.20;99.90
17333;DHT22;8784;50.94667800;7.08448400;2023-08-07T06:17:57;15.10;99.90
17333;DHT22;8784;50.94667800;7.08448400;2023-08-07T06:20:24;15.00;99.90
17333;DHT22;8784;50.94667800;7.08448400;2023-08-07T06:22:51;15.00;99.90
17333;DHT22;8784;50.94667800;7.08448400;2023-08-07T06:25:18;15.00;99.90
17333;DHT22;8784;50.94667800;7.08448400;2023-08-07T06:27:45;15.00;99.90
17333;DHT22;8784;50.94667800;7.08448400;2023-08-07T06:30:13;14.80;99.90
17333;DHT22;8784;50.94667800;7.08448400;2023-08-07T06:32:40;14.70;99.90
17333;DHT22;8784;50.94667800;7.08448400;2023-08-07T06:35:08;14.70;99.90
17333;DHT22;8784;50.94667800;7.08448400;2023-08-07T06:37:35;14.50;99.90
17333;DHT22;8784;50.94667800;7.08448400;2023-08-07T06:40:03;14.60;99.90
17333;DHT22;8784;50.94667800;7.08448400;2023-08-07T06:42:30;14.50;99.90
17333;DHT22;8784;50.94667800;7.08448400;2023-08-07T06:44:57;14.40;99.90
17333;DHT22;8784;50.94667800;7.08448400;2023-08-07T06:47:25;14.50;99.90
17333;DHT22;8784;50.94667800;7.08448400;2023-08-07T06:49:52;14.40;99.90
17333;DHT22;8784;50.94667800;7.08448400;2023-08-07T06:52:19;14.50;99.90
17333;DHT22;8784;50.94667800;7.08448400;2023-08-07T06:54:46;14.50;99.90
17333;DHT22;8784;50.94667800;7.08448400;2023-08-07T06:57:13;14.50;99.90
17333;DHT22;8784;50.94667800;7.08448400;2023-08-07T06:59:40;14.50;99.90
17333;DHT22;8784;50.94667800;7.08448400;2023-08-07T07:02:06;14.50;99.90
17333;DHT22;8784;50.94667800;7.08448400;2023-08-07T07:04:35;14.40;99.90
17333;DHT22;8784;50.94667800;7.08448400;2023-08-07T07:07:02;14.40;99.90
17333;DHT22;8784;50.94667800;7.08448400;2023-08-07T07:09:29;14.40;99.90
17333;DHT22;8784;50.94667800;7.08448400;2023-08-07T07:11:57;14.40;99.90
17333;DHT22;8784;50.94667800;7.08448400;2023-08-07T07:14:24;14.50;99.90
17333;DHT22;8784;50.94667800;7.08448400;2023-08-07T07:16:51;14.50;99.90
17333;DHT22;8784;50.94667800;7.08448400;2023-08-07T07:19:18;14.50;99.90
17333;DHT22;8784;50.94667800;7.08448400;2023-08-07T07:21:46;14.60;99.90
17333;DHT22;8784;50.94667800;7.08448400;2023-08-07T07:24:13;14.50;99.90
17333;DHT22;8784;50.94667800;7.08448400;2023-08-07T07:26:40;14.50;99.90
17333;DHT22;8784;50.94667800;7.08448400;2023-08-07T07:29:07;14.50;99.90
17333;DHT22;8784;50.94667800;7.08448400;2023-08-07T07:31:33;14.50;99.90
17333;DHT22;8784;50.94667800;7.08448400;2023-08-07T07:34:00;14.50;99.90
17333;DHT22;8784;50.94667800;7.08448400;2023-08-07T07:36:28;14.50;99.90
17333;DHT22;8784;50.94667800;7.08448400;2023-08-07T07:38:56;14.40;99.90
17333;DHT22;8784;50.94667800;7.08448400;2023-08-07T07:41:23;14.30;99.90
17333;DHT22;8784;50.94667800;7.08448400;2023-08-07T07:43:50;14.40;99.90
17333;DHT22;8784;50.94667800;7.08448400;2023-08-07T07:46:17;14.30;99.90
17333;DHT22;8784;50.94667800;7.08448400;2023-08-07T07:48:44;14.20;99.90
17333;DHT22;8784;50.94667800;7.08448400;2023-08-07T07:51:10;14.20;99.90
17333;DHT22;8784;50.94667800;7.08448400;2023-08-07T07:53:37;14.30;99.90
17333;DHT22;8784;50.94667800;7.08448400;2023-08-07T07:56:06;14.30;99.90
17333;DHT22;8784;50.94667800;7.08448400;2023-08-07T07:58:33;14.30;99.90
17333;DHT22;8784;50.94667800;7.08448400;2023-08-07T08:01:00;14.30;99.90
17333;DHT22;8784;50.94667800;7.08448400;2023-08-07T08:03:26;14.40;99.90
17333;DHT22;8784;50.94667800;7.08448400;2023-08-07T08:05:53;14.40;99.90
17333;DHT22;8784;50.94667800;7.08448400;2023-08-07T08:08:20;14.50;99.90
17333;DHT22;8784;50.94667800;7.08448400;2023-08-07T08:10:47;14.60;99.90
17333;DHT22;8784;50.94667800;7.08448400;2023-08-07T08:13:16;14.70;99.90
17333;DHT22;8784;50.94667800;7.08448400;2023-08-07T08:15:43;14.70;99.90
17333;DHT22;8784;50.94667800;7.08448400;2023-08-07T08:18:11;14.80;99.90
17333;DHT22;8784;50.94667800;7.08448400;2023-08-07T08:20:38;14.90;99.90
17333;DHT22;8784;50.94667800;7.08448400;2023-08-07T08:23:05;14.90;99.90
17333;DHT22;8784;50.94667800;7.08448400;2023-08-07T08:25:32;15.00;99.90
17333;DHT22;8784;50.94667800;7.08448400;2023-08-07T08:27:59;15.00;99.90
17333;DHT22;8784;50.94667800;7.08448400;2023-08-07T08:30:28;15.00;99.90
17333;DHT22;8784;50.94667800;7.08448400;2023-08-07T08:32:55;15.00;99.90
17333;DHT22;8784;50.94667800;7.08448400;2023-08-07T08:35:22;15.00;99.90
17333;DHT22;8784;50.94667800;7.08448400;2023-08-07T08:37:49;15.00;99.90
17333;DHT22;8784;50.94667800;7.08448400;2023-08-07T08:40:16;15.00;99.90
17333;DHT22;8784;50.94667800;7.08448400;2023-08-07T08:42:45;15.00;99.90
17333;DHT22;8784;50.94667800;7.08448400;2023-08-07T08:45:13;15.00;99.90
17333;DHT22;8784;50.94667800;7.08448400;2023-08-07T08:47:43;15.10;99.90
17333;DHT22;8784;50.94667800;7.08448400;2023-08-07T08:50:13;15.00;99.90
17333;DHT22;8784;50.94667800;7.08448400;2023-08-07T08:52:42;15.00;99.90
17333;DHT22;8784;50.94667800;7.08448400;2023-08-07T08:55:11;15.10;99.90
17333;DHT22;8784;50.94667800;7.08448400;2023-08-07T08:57:38;15.20;99.90
17333;DHT22;8784;50.94667800;7.08448400;2023-08-07T09:00:06;15.30;99.90
17333;DHT22;8784;50.94667800;7.08448400;2023-08-07T09:02:46;15.40;99.90
17333;DHT22;8784;50.94667800;7.08448400;2023-08-07T09:05:14;15.50;99.90
17333;DHT22;8784;50.94667800;7.08448400;2023-08-07T09:07:42;15.60;99.90
17333;DHT22;8784;50.94667800;7.08448400;2023-08-07T09:10:10;15.70;99.90
17333;DHT22;8784;50.94667800;7.08448400;2023-08-07T09:12:40;15.80;99.90
17333;DHT22;8784;50.94667800;7.08448400;2023-08-07T09:15:09;15.90;99.90
17333;DHT22;8784;50.94667800;7.08448400;2023-08-07T09:17:39;16.00;99.90
17333;DHT22;8784;50.94667800;7.08448400;2023-08-07T09:20:09;16.10;99.90
17333;DHT22;8784;50.94667800;7.08448400;2023-08-07T09:22:37;16.20;99.90
17333;DHT22;8784;50.94667800;7.08448400;2023-08-07T09:25:06;16.30;99.90
17333;DHT22;8784;50.94667800;7.08448400;2023-08-07T09:27:33;16.30;99.90
17333;DHT22;8784;50.94667800;7.08448400;2023-08-07T09:30:03;16.30;99.90
17333;DHT22;8784;50.94667800;7.08448400;2023-08-07T09:32:32;16.40;99.90
17333;DHT22;8784;50.94667800;7.08448400;2023-08-07T09:34:59;16.40;99.90
17333;DHT22;8784;50.94667800;7.08448400;2023-08-07T09:37:30;16.40;99.90
17333;DHT22;8784;50.94667800;7.08448400;2023-08-07T09:39:59;16.40;99.90
17333;DHT22;8784;50.94667800;7.08448400;2023-08-07T09:42:30;16.30;99.90
17333;DHT22;8784;50.94667800;7.08448400;2023-08-07T09:44:58;16.20;99.90
17333;DHT22;8784;50.94667800;7.08448400;2023-08-07T09:47:25;16.30;99.90
17333;DHT22;8784;50.94667800;7.08448400;2023-08-07T09:49:54;16.40;99.90
17333;DHT22;8784;50.94667800;7.08448400;2023-08-07T09:52:21;16.30;99.90
17333;DHT22;8784;50.94667800;7.08448400;2023-08-07T09:54:50;16.20;99.90
17333;DHT22;8784;50.94667800;7.08448400;2023-08-07T09:57:16;16.20;99.90
17333;DHT22;8784;50.94667800;7.08448400;2023-08-07T09:59:49;16.40;99.90
17333;DHT22;8784;50.94667800;7.08448400;2023-08-07T10:02:17;16.80;99.90
17333;DHT22;8784;50.94667800;7.08448400;2023-08-07T10:04:44;17.00;99.90
17333;DHT22;8784;50.94667800;7.08448400;2023-08-07T10:07:11;17.00;99.90
17333;DHT22;8784;50.94667800;7.08448400;2023-08-07T10:09:41;16.90;99.90
17333;DHT22;8784;50.94667800;7.08448400;2023-08-07T10:12:10;17.00;99.90
17333;DHT22;8784;50.94667800;7.08448400;2023-08-07T10:14:38;17.30;99.90
17333;DHT22;8784;50.94667800;7.08448400;2023-08-07T10:17:07;17.60;99.90
17333;DHT22;8784;50.94667800;7.08448400;2023-08-07T10:19:34;17.90;99.90
17333;DHT22;8784;50.94667800;7.08448400;2023-08-07T10:22:05;18.10;99.90
17333;DHT22;8784;50.94667800;7.08448400;2023-08-07T10:24:34;18.30;99.90
17333;DHT22;8784;50.94667800;7.08448400;2023-08-07T10:27:03;18.50;99.90
17333;DHT22;8784;50.94667800;7.08448400;2023-08-07T10:29:32;18.50;99.90
17333;DHT22;8784;50.94667800;7.08448400;2023-08-07T10:32:01;18.50;99.90
17333;DHT22;8784;50.94667800;7.08448400;2023-08-07T10:34:29;18.60;99.90
17333;DHT22;8784;50.94667800;7.08448400;2023-08-07T10:36:56;19.60;99.90
17333;DHT22;8784;50.94667800;7.08448400;2023-08-07T10:39:23;20.60;99.90
17333;DHT22;8784;50.94667800;7.08448400;2023-08-07T10:41:53;21.40;99.90
17333;DHT22;8784;50.94667800;7.08448400;2023-08-07T10:44:21;22.10;99.90
17333;DHT22;8784;50.94667800;7.08448400;2023-08-07T10:46:51;22.40;99.90
17333;DHT22;8784;50.94667800;7.08448400;2023-08-07T10:49:32;22.80;99.90
17333;DHT22;8784;50.94667800;7.08448400;2023-08-07T10:52:03;22.80;99.90
17333;DHT22;8784;50.94667800;7.08448400;2023-08-07T10:54:30;22.70;99.90
17333;DHT22;8784;50.94667800;7.08448400;2023-08-07T10:56:59;23.00;99.90
17333;DHT22;8784;50.94667800;7.08448400;2023-08-07T10:59:29;23.90;99.90
17333;DHT22;8784;50.94667800;7.08448400;2023-08-07T11:01:59;24.60;99.90
17333;DHT22;8784;50.94667800;7.08448400;2023-08-07T11:04:26;25.20;99.90
17333;DHT22;8784;50.94667800;7.08448400;2023-08-07T11:06:53;25.40;99.90
17333;DHT22;8784;50.94667800;7.08448400;2023-08-07T11:09:20;25.30;99.90
17333;DHT22;8784;50.94667800;7.08448400;2023-08-07T11:11:48;25.30;99.90
17333;DHT22;8784;50.94667800;7.08448400;2023-08-07T11:14:16;25.10;99.90
17333;DHT22;8784;50.94667800;7.08448400;2023-08-07T11:16:44;24.90;99.40
17333;DHT22;8784;50.94667800;7.08448400;2023-08-07T11:19:14;24.50;98.20
17333;DHT22;8784;50.94667800;7.08448400;2023-08-07T11:21:42;23.90;97.90
17333;DHT22;8784;50.94667800;7.08448400;2023-08-07T11:24:11;23.60;97.50
17333;DHT22;8784;50.94667800;7.08448400;2023-08-07T11:26:38;23.20;97.30
17333;DHT22;8784;50.94667800;7.08448400;2023-08-07T11:29:06;23.00;97.00
17333;DHT22;8784;50.94667800;7.08448400;2023-08-07T11:31:33;22.80;97.10
17333;DHT22;8784;50.94667800;7.08448400;2023-08-07T11:34:00;22.80;96.60
17333;DHT22;8784;50.94667800;7.08448400;2023-08-07T11:36:29;22.90;96.00
17333;DHT22;8784;50.94667800;7.08448400;2023-08-07T11:38:57;23.00;96.00
17333;DHT22;8784;50.94667800;7.08448400;2023-08-07T11:41:24;22.90;95.30
17333;DHT22;8784;50.94667800;7.08448400;2023-08-07T11:43:51;22.80;95.30
17333;DHT22;8784;50.94667800;7.08448400;2023-08-07T11:46:18;22.80;95.10
17333;DHT22;8784;50.94667800;7.08448400;2023-08-07T11:48:45;22.70;95.50
17333;DHT22;8784;50.94667800;7.08448400;2023-08-07T11:51:12;22.60;94.70
17333;DHT22;8784;50.94667800;7.08448400;2023-08-07T11:53:41;22.40;94.60
17333;DHT22;8784;50.94667800;7.08448400;2023-08-07T11:56:10;22.30;94.60
17333;DHT22;8784;50.94667800;7.08448400;2023-08-07T11:58:40;22.20;94.20
17333;DHT22;8784;50.94667800;7.08448400;2023-08-07T12:01:10;22.10;94.30
17333;DHT22;8784;50.94667800;7.08448400;2023-08-07T12:03:38;22.10;93.90
17333;DHT22;8784;50.94667800;7.08448400;2023-08-07T12:06:07;22.20;93.40
17333;DHT22;8784;50.94667800;7.08448400;2023-08-07T12:08:35;22.20;93.10
17333;DHT22;8784;50.94667800;7.08448400;2023-08-07T12:11:05;22.30;92.50
17333;DHT22;8784;50.94667800;7.08448400;2023-08-07T12:13:32;22.30;92.20
17333;DHT22;8784;50.94667800;7.08448400;2023-08-07T12:16:01;22.40;92.30
17333;DHT22;8784;50.94667800;7.08448400;2023-08-07T12:18:30;22.40;92.30
17333;DHT22;8784;50.94667800;7.08448400;2023-08-07T12:20:59;22.50;91.50
17333;DHT22;8784;50.94667800;7.08448400;2023-08-07T12:23:26;22.50;91.10
17333;DHT22;8784;50.94667800;7.08448400;2023-08-07T12:25:54;22.70;90.90
17333;DHT22;8784;50.94667800;7.08448400;2023-08-07T12:28:22;22.80;90.60
17333;DHT22;8784;50.94667800;7.08448400;2023-08-07T12:30:50;22.80;90.50
17333;DHT22;8784;50.94667800;7.08448400;2023-08-07T12:33:18;22.90;90.30
17333;DHT22;8784;50.94667800;7.08448400;2023-08-07T12:35:45;23.00;89.60
17333;DHT22;8784;50.94667800;7.08448400;2023-08-07T12:38:12;23.10;88.70
17333;DHT22;8784;50.94667800;7.08448400;2023-08-07T12:40:40;23.20;87.20
17333;DHT22;8784;50.94667800;7.08448400;2023-08-07T12:43:07;23.20;86.70
17333;DHT22;8784;50.94667800;7.08448400;2023-08-07T12:45:36;23.30;84.80
17333;DHT22;8784;50.94667800;7.08448400;2023-08-07T12:48:03;23.30;83.80
17333;DHT22;8784;50.94667800;7.08448400;2023-08-07T12:50:31;23.20;82.90
17333;DHT22;8784;50.94667800;7.08448400;2023-08-07T12:52:58;23.30;83.30
17333;DHT22;8784;50.94667800;7.08448400;2023-08-07T12:55:25;23.50;83.70
17333;DHT22;8784;50.94667800;7.08448400;2023-08-07T12:57:53;23.80;83.60
17333;DHT22;8784;50.94667800;7.08448400;2023-08-07T13:00:21;23.90;82.50
17333;DHT22;8784;50.94667800;7.08448400;2023-08-07T13:02:50;23.90;81.10
17333;DHT22;8784;50.94667800;7.08448400;2023-08-07T13:05:19;23.90;80.90
17333;DHT22;8784;50.94667800;7.08448400;2023-08-07T13:07:46;24.00;81.10
17333;DHT22;8784;50.94667800;7.08448400;2023-08-07T13:10:14;24.10;81.30
17333;DHT22;8784;50.94667800;7.08448400;2023-08-07T13:12:43;24.20;81.70
17333;DHT22;8784;50.94667800;7.08448400;2023-08-07T13:15:15;24.20;80.20
17333;DHT22;8784;50.94667800;7.08448400;2023-08-07T13:17:43;24.20;79.70
17333;DHT22;8784;50.94667800;7.08448400;2023-08-07T13:20:12;24.10;78.90
17333;DHT22;8784;50.94667800;7.08448400;2023-08-07T13:22:40;24.10;79.00
17333;DHT22;8784;50.94667800;7.08448400;2023-08-07T13:25:08;24.00;78.40
17333;DHT22;8784;50.94667800;7.08448400;2023-08-07T13:27:36;23.90;77.90
17333;DHT22;8784;50.94667800;7.08448400;2023-08-07T13:30:05;23.80;76.90
17333;DHT22;8784;50.94667800;7.08448400;2023-08-07T13:32:32;23.70;76.80
17333;DHT22;8784;50.94667800;7.08448400;2023-08-07T13:34:59;23.60;76.30
17333;DHT22;8784;50.94667800;7.08448400;2023-08-07T13:37:28;23.50;76.20